Kapalua Airport Lahaina US
ICAO: PHJH
IATA:
Category: Medium
Scheduled Services:

Elevation: 256 ft
TransAlt. 0 ft.

Airport Communications:
AWOS:118.525
MAUI RDO:123.6
CTAF/UNICOM:122.7

PHJH Zoom In..

If you have problems with the map follow the link
https://www.worldairports.se/pages/airport.php?
ICAO=PHJH

Runways:

(A) RW 02 length 3000 ft width 100 ft
---- / hdg 17

(B) RW 20 length 3000 ft width 100 ft
---- / hdg 197

Location; PHJH
Day. 23 / Time. 17.45 Zulu
* Altimeter: 29.98
* Temperature: 25° c. 77°f.
* Wind from: 040° Speed 10 kn.
Dewpoint: 20° c.
Visibility: 12 Statute Miles.
Clouds: Few 3000 ft.
Clouds: Few 5000 ft.

PHJH 231745Z 04010KT 12SM FEW030 FEW050 25/20 A2998


Wind From 040°
Speed 10 kn.

 
 
jpsmedia.com for Web Design worldairports.se 2018   terms of use